O64 weather

Port of Catoosa Heliport
Catoosa, Oklahoma, United States

Public forecast

Using degrees Fahrenheit for public forecast. Weather courtesy of forecast.io.

Closest aviation weather report (METAR) to Port of Catoosa Heliport

Closest report is Tulsa International Airport, 7.5 nm (13.9 km) WSW. Retrieved 2020/02/21 14:53 UTC (19 minutes ago):

KTUL 211453Z 00000KT 10SM CLR M02/M07 A3073 RMK AO2 SLP414 T10221067 53008

Closest aviation forecast (TAF) to Port of Catoosa Heliport

Closest forecast is Tulsa International Airport, 7.5 nm (13.9 km) WSW. Retrieved 2020/02/21 12:22 UTC (3 hours ago):

TAF KTUL 211120Z 2112/2212 VRB04KT P6SM SKC FM211600 17008KT P6SM SCT250